createdAt,value
2023-05-14T00:01:00.585Z,104.73
2023-05-14T00:02:09.747Z,106.44
2023-05-14T00:03:18.918Z,106.68
2023-05-14T00:04:28.089Z,104.24
2023-05-14T00:05:37.266Z,105.95
2023-05-14T00:06:45.448Z,105.71
2023-05-14T00:07:53.651Z,102.05
2023-05-14T00:09:01.863Z,104
2023-05-14T00:10:11.013Z,104.73
2023-05-14T00:11:20.187Z,106.44
2023-05-14T00:12:29.362Z,105.46
2023-05-14T00:13:38.545Z,105.95
2023-05-14T00:14:47.712Z,105.46
2023-05-14T00:15:56.875Z,105.46
2023-05-14T00:17:06.048Z,105.22
2023-05-14T00:18:15.224Z,105.22
2023-05-14T00:20:33.565Z,106.44
2023-05-14T00:21:42.737Z,104.24
2023-05-14T00:22:51.911Z,102.78
2023-05-14T00:24:00.098Z,100.09
2023-05-14T00:27:27.610Z,101.56
2023-05-14T00:28:35.822Z,97.9
2023-05-14T00:29:44.006Z,97.41
2023-05-14T00:30:53.229Z,95.7
2023-05-14T00:32:02.351Z,96.19
2023-05-14T00:33:11.517Z,93.5
2023-05-14T00:34:20.690Z,96.43
2023-05-14T00:35:29.886Z,92.52
2023-05-14T00:36:39.075Z,92.52
2023-05-14T00:37:48.212Z,94.97
2023-05-14T00:38:57.388Z,95.94
2023-05-14T00:40:05.578Z,93.01
2023-05-14T00:41:13.758Z,93.01
2023-05-14T00:42:22.929Z,93.01
2023-05-14T00:43:32.100Z,92.04
2023-05-14T00:44:41.274Z,94.23
2023-05-14T00:45:50.461Z,92.77
2023-05-14T00:46:59.634Z,94.48
2023-05-14T00:48:08.810Z,95.45
2023-05-14T00:49:17.974Z,97.16
2023-05-14T00:50:27.148Z,97.41
2023-05-14T00:51:36.341Z,96.67
2023-05-14T00:52:45.499Z,100.34
2023-05-14T00:53:54.677Z,99.12
2023-05-14T00:55:03.850Z,98.87
2023-05-14T00:56:12.041Z,98.63
2023-05-14T00:58:30.383Z,101.8
2023-05-14T00:59:39.551Z,100.09
2023-05-14T01:00:48.729Z,100.09
2023-05-14T01:01:57.891Z,102.53
2023-05-14T01:03:07.067Z,101.31
2023-05-14T01:04:16.245Z,100.58
2023-05-14T01:05:25.412Z,101.07
2023-05-14T01:06:34.589Z,101.07
2023-05-14T01:07:43.758Z,100.34
2023-05-14T01:08:52.929Z,100.09
2023-05-14T01:10:02.097Z,100.83
2023-05-14T01:12:19.456Z,102.53
2023-05-14T01:13:28.633Z,101.31
2023-05-14T01:14:37.833Z,100.83
2023-05-14T01:15:46.988Z,105.46
2023-05-14T01:16:56.164Z,102.53
2023-05-14T01:18:05.335Z,103.75
2023-05-14T01:19:14.502Z,104
2023-05-14T01:20:23.664Z,104.49
2023-05-14T01:21:32.838Z,105.71
2023-05-14T01:22:42.024Z,104.24
2023-05-14T01:23:51.190Z,106.93
2023-05-14T01:25:00.366Z,104.24
2023-05-14T01:26:08.555Z,104
2023-05-14T01:27:16.749Z,102.78
2023-05-14T01:28:24.939Z,104.24
2023-05-14T01:29:33.118Z,102.53
2023-05-14T01:30:42.325Z,105.46
2023-05-14T01:33:00.645Z,102.53
2023-05-14T01:34:09.818Z,103.02
2023-05-14T01:35:18.988Z,104
2023-05-14T01:36:28.172Z,101.8
2023-05-14T01:37:37.339Z,102.05
2023-05-14T01:39:55.681Z,101.56
2023-05-14T01:41:04.857Z,101.31
2023-05-14T01:42:13.055Z,101.8
2023-05-14T01:43:21.239Z,102.53
2023-05-14T01:44:30.420Z,104.73
2023-05-14T01:45:39.588Z,103.27
2023-05-14T01:46:48.751Z,103.51
2023-05-14T01:47:57.938Z,103.02
2023-05-14T01:49:07.107Z,103.27
2023-05-14T01:50:16.289Z,101.31
2023-05-14T01:51:25.468Z,101.31
2023-05-14T01:52:34.621Z,103.27
2023-05-14T01:53:42.827Z,102.29
2023-05-14T01:54:51.000Z,101.31
2023-05-14T01:56:00.193Z,101.56
2023-05-14T01:57:09.344Z,101.07
2023-05-14T01:58:18.537Z,101.8
2023-05-14T01:59:27.828Z,101.31
2023-05-14T02:00:36.857Z,101.8
2023-05-14T02:01:46.045Z,102.29
2023-05-14T02:04:04.391Z,101.07
2023-05-14T02:05:13.556Z,101.8
2023-05-14T02:06:22.723Z,101.8
2023-05-14T02:07:31.932Z,101.8
2023-05-14T02:08:41.080Z,102.05
2023-05-14T02:09:49.276Z,101.31
2023-05-14T02:10:58.539Z,102.78
2023-05-14T02:12:07.613Z,101.8
2023-05-14T02:13:16.786Z,101.8
2023-05-14T02:14:25.995Z,100.09
2023-05-14T02:15:35.128Z,101.8
2023-05-14T02:16:44.303Z,100.34
2023-05-14T02:17:52.501Z,100.83
2023-05-14T02:19:00.685Z,98.87
2023-05-14T02:20:09.864Z,98.87
2023-05-14T02:21:19.032Z,100.83
2023-05-14T02:22:28.216Z,102.53
2023-05-14T02:23:37.387Z,101.8
2023-05-14T02:24:46.548Z,103.51
2023-05-14T02:25:55.753Z,101.8
2023-05-14T02:27:04.899Z,99.85
2023-05-14T02:28:14.064Z,100.09
2023-05-14T02:29:23.246Z,100.34
2023-05-14T02:30:32.417Z,102.53
2023-05-14T02:31:41.594Z,100.34
2023-05-14T02:32:50.771Z,101.07
2023-05-14T02:33:58.951Z,100.83
2023-05-14T02:35:08.114Z,99.36
2023-05-14T02:36:17.289Z,101.8
2023-05-14T02:37:26.474Z,101.31
2023-05-14T02:38:35.638Z,102.53
2023-05-14T02:39:44.819Z,101.8
2023-05-14T02:40:53.986Z,101.56
2023-05-14T02:42:03.164Z,100.34
2023-05-14T02:43:12.326Z,100.58
2023-05-14T02:44:21.512Z,100.83
2023-05-14T02:45:30.669Z,100.83
2023-05-14T02:46:39.846Z,102.78
2023-05-14T02:47:49.010Z,102.78
2023-05-14T02:48:57.214Z,101.8
2023-05-14T02:51:15.596Z,101.8
2023-05-14T02:52:24.727Z,101.8
2023-05-14T02:53:33.898Z,99.85
2023-05-14T02:54:43.111Z,100.34
2023-05-14T02:55:52.259Z,101.07
2023-05-14T02:58:10.590Z,99.6
2023-05-14T02:59:19.778Z,100.58
2023-05-14T03:01:38.110Z,102.05
2023-05-14T03:02:47.283Z,101.8
2023-05-14T03:03:55.475Z,100.83
2023-05-14T03:05:03.658Z,100.83
2023-05-14T03:06:12.842Z,99.6
2023-05-14T03:07:22.027Z,101.31
2023-05-14T03:08:31.175Z,100.83
2023-05-14T03:09:40.359Z,101.07
2023-05-14T03:11:58.710Z,102.05
2023-05-14T03:13:07.872Z,101.8
2023-05-14T03:14:17.050Z,102.29
2023-05-14T03:15:26.209Z,103.02
2023-05-14T03:16:35.393Z,101.31
2023-05-14T03:17:44.566Z,101.8
2023-05-14T03:18:53.754Z,100.34
2023-05-14T03:20:01.933Z,101.8
2023-05-14T03:21:11.102Z,102.53
2023-05-14T03:22:20.270Z,101.31
2023-05-14T03:23:29.449Z,101.8
2023-05-14T03:24:38.621Z,101.8
2023-05-14T03:25:47.788Z,100.83
2023-05-14T03:26:56.960Z,102.05
2023-05-14T03:28:05.159Z,102.29
2023-05-14T03:29:13.348Z,102.05
2023-05-14T03:30:21.545Z,101.8
2023-05-14T03:31:30.720Z,101.07
2023-05-14T03:32:39.901Z,101.56
2023-05-14T03:33:49.060Z,103.51
2023-05-14T03:34:58.236Z,101.07
2023-05-14T03:37:16.586Z,100.34
2023-05-14T03:38:25.750Z,99.12
2023-05-14T03:40:44.103Z,99.12
2023-05-14T03:41:53.277Z,97.65
2023-05-14T03:43:01.460Z,96.92
2023-05-14T03:44:09.652Z,96.92
2023-05-14T03:46:28.012Z,95.45
2023-05-14T03:47:37.175Z,96.67
2023-05-14T03:48:45.368Z,97.16
2023-05-14T03:49:54.540Z,96.92
2023-05-14T03:51:03.709Z,94.97
2023-05-14T03:52:12.873Z,94.97
2023-05-14T03:53:22.052Z,96.43
2023-05-14T03:54:31.231Z,93.75
2023-05-14T03:55:40.406Z,94.48
2023-05-14T03:56:49.570Z,95.7
2023-05-14T03:57:58.755Z,94.97
2023-05-14T03:59:07.927Z,94.48
2023-05-14T04:00:17.091Z,96.43
2023-05-14T04:01:26.265Z,93.01
2023-05-14T04:02:35.448Z,91.79
2023-05-14T04:03:43.623Z,91.79
2023-05-14T04:04:52.802Z,91.06
2023-05-14T04:06:01.977Z,91.3
2023-05-14T04:07:10.163Z,89.84
2023-05-14T04:08:18.348Z,89.59
2023-05-14T04:09:27.538Z,94.23
2023-05-14T04:10:36.723Z,91.06
2023-05-14T04:11:45.865Z,91.3
2023-05-14T04:12:55.044Z,91.79
2023-05-14T04:14:04.217Z,95.21
2023-05-14T04:15:13.406Z,90.08
2023-05-14T04:16:22.565Z,91.79
2023-05-14T04:17:31.745Z,94.97
2023-05-14T04:18:40.917Z,93.5
2023-05-14T04:19:50.087Z,96.67
2023-05-14T04:20:59.255Z,93.5
2023-05-14T04:22:08.442Z,94.97
2023-05-14T04:23:16.610Z,96.43
2023-05-14T04:24:25.796Z,98.14
2023-05-14T04:25:34.957Z,98.63
2023-05-14T04:26:44.141Z,97.16
2023-05-14T04:27:53.310Z,99.85
2023-05-14T04:29:02.487Z,100.09
2023-05-14T04:30:10.687Z,100.34
2023-05-14T04:31:18.862Z,101.8
2023-05-14T04:32:28.032Z,100.09
2023-05-14T04:33:37.199Z,101.07
2023-05-14T04:34:46.384Z,99.85
2023-05-14T04:35:55.554Z,102.29
2023-05-14T04:37:04.726Z,99.85
2023-05-14T04:38:13.904Z,98.63
2023-05-14T04:39:23.076Z,100.34
2023-05-14T04:40:32.245Z,101.8
2023-05-14T04:41:41.418Z,100.34
2023-05-14T04:42:50.594Z,101.07
2023-05-14T04:45:08.936Z,101.07
2023-05-14T04:47:26.294Z,101.8
2023-05-14T04:48:34.484Z,100.58
2023-05-14T04:49:42.692Z,102.53
2023-05-14T04:50:51.849Z,104
2023-05-14T04:52:01.012Z,101.8
2023-05-14T04:53:10.184Z,102.78
2023-05-14T04:54:19.364Z,102.29
2023-05-14T04:55:28.557Z,99.6
2023-05-14T04:56:37.708Z,101.07
2023-05-14T04:57:46.883Z,100.34
2023-05-14T04:58:56.070Z,100.09
2023-05-14T05:00:04.264Z,101.56
2023-05-14T05:01:12.445Z,102.78
2023-05-14T05:02:21.616Z,103.02
2023-05-14T05:03:30.790Z,100.83
2023-05-14T05:04:39.961Z,101.07
2023-05-14T05:05:49.136Z,100.34
2023-05-14T05:06:58.305Z,100.83
2023-05-14T05:08:07.487Z,101.07
2023-05-14T05:09:16.661Z,100.34
2023-05-14T05:10:25.831Z,101.31
2023-05-14T05:11:35.014Z,100.09
2023-05-14T05:12:44.175Z,100.09
2023-05-14T05:13:53.356Z,100.34
2023-05-14T05:15:02.523Z,102.29
2023-05-14T05:16:10.718Z,101.31
2023-05-14T05:17:19.892Z,99.6
2023-05-14T05:18:29.061Z,100.34
2023-05-14T05:19:38.233Z,102.53
2023-05-14T05:20:47.399Z,101.56
2023-05-14T05:21:56.570Z,100.58
2023-05-14T05:23:04.764Z,101.07
2023-05-14T05:24:12.967Z,101.56
2023-05-14T05:26:30.343Z,99.6
2023-05-14T05:27:39.499Z,103.75
2023-05-14T05:28:48.668Z,101.8
2023-05-14T05:29:57.857Z,102.53
2023-05-14T05:31:07.011Z,99.85
2023-05-14T05:32:16.189Z,101.07
2023-05-14T05:33:25.356Z,100.09
2023-05-14T05:34:34.528Z,99.85
2023-05-14T05:35:43.703Z,102.05
2023-05-14T05:36:52.876Z,100.58
2023-05-14T05:38:02.043Z,100.34
2023-05-14T05:39:11.251Z,99.85
2023-05-14T05:40:19.440Z,101.07
2023-05-14T05:41:28.584Z,99.36
2023-05-14T05:42:37.754Z,101.07
2023-05-14T05:43:46.924Z,101.07
2023-05-14T05:44:56.103Z,98.63
2023-05-14T05:46:05.278Z,97.9
2023-05-14T05:47:14.452Z,99.36
2023-05-14T05:48:23.612Z,100.09
2023-05-14T05:49:32.791Z,99.6
2023-05-14T05:50:41.955Z,102.05
2023-05-14T05:51:51.118Z,99.85
2023-05-14T05:54:09.469Z,100.34
2023-05-14T05:55:18.655Z,99.85
2023-05-14T05:56:26.853Z,98.63
2023-05-14T05:57:36.057Z,100.58
2023-05-14T05:58:45.171Z,99.6
2023-05-14T05:59:54.350Z,99.12
2023-05-14T06:01:03.557Z,99.36
2023-05-14T06:02:11.746Z,98.38
2023-05-14T06:05:38.327Z,100.58
2023-05-14T06:06:47.434Z,98.14
2023-05-14T06:07:56.606Z,99.85
2023-05-14T06:09:05.805Z,102.53
2023-05-14T06:10:14.939Z,100.58
2023-05-14T06:11:24.119Z,99.85
2023-05-14T06:12:33.294Z,98.38
2023-05-14T06:14:51.649Z,99.85
2023-05-14T06:16:00.819Z,100.34
2023-05-14T06:17:09.004Z,97.9
2023-05-14T06:18:17.194Z,100.34
2023-05-14T06:19:26.376Z,98.87
2023-05-14T06:20:35.531Z,97.16
2023-05-14T06:21:44.704Z,98.87
2023-05-14T06:22:53.876Z,99.6
2023-05-14T06:24:03.075Z,97.65
2023-05-14T06:25:12.220Z,99.36
2023-05-14T06:26:21.391Z,98.14
2023-05-14T06:27:30.577Z,99.36
2023-05-14T06:28:38.796Z,98.63
2023-05-14T06:29:46.936Z,99.85
2023-05-14T06:30:56.107Z,100.34
2023-05-14T06:33:14.464Z,99.6
2023-05-14T06:34:23.641Z,99.6
2023-05-14T06:35:32.848Z,98.87
2023-05-14T06:36:41.987Z,99.85
2023-05-14T06:37:51.154Z,98.38
2023-05-14T06:39:00.328Z,99.85
2023-05-14T06:40:09.492Z,98.87
2023-05-14T06:41:18.667Z,98.38
2023-05-14T06:42:27.841Z,99.12
2023-05-14T06:43:37.018Z,98.87
2023-05-14T06:44:45.213Z,98.87
2023-05-14T06:45:54.385Z,100.09
2023-05-14T06:47:03.546Z,101.8
2023-05-14T06:48:12.741Z,100.58
2023-05-14T06:49:21.892Z,98.38
2023-05-14T06:50:31.068Z,98.87
2023-05-14T06:51:40.233Z,97.9
2023-05-14T06:52:49.413Z,99.6
2023-05-14T06:53:58.583Z,101.31
2023-05-14T06:55:07.751Z,100.34
2023-05-14T06:56:16.926Z,101.07
2023-05-14T06:57:26.090Z,100.83
2023-05-14T06:59:43.466Z,98.63
2023-05-14T07:00:51.658Z,99.85
2023-05-14T07:01:59.858Z,101.07
2023-05-14T07:03:08.078Z,100.34
2023-05-14T07:04:17.210Z,102.29
2023-05-14T07:05:26.399Z,100.34
2023-05-14T07:06:35.576Z,101.8
2023-05-14T07:07:44.728Z,101.8
2023-05-14T07:08:53.898Z,102.05
2023-05-14T07:10:03.100Z,99.12
2023-05-14T07:11:12.248Z,101.8
2023-05-14T07:12:21.445Z,99.6
2023-05-14T07:13:30.593Z,99.85
2023-05-14T07:14:39.769Z,99.36
2023-05-14T07:15:48.934Z,101.31
2023-05-14T07:18:07.285Z,99.85
2023-05-14T07:19:15.470Z,101.56
2023-05-14T07:20:24.647Z,99.36
2023-05-14T07:21:33.819Z,100.58
2023-05-14T07:22:42.992Z,100.58
2023-05-14T07:26:10.503Z,98.63
2023-05-14T07:27:19.684Z,102.29
2023-05-14T07:28:27.870Z,100.34
2023-05-14T07:29:36.074Z,102.05
2023-05-14T07:31:54.414Z,98.38
2023-05-14T07:35:21.918Z,102.53
2023-05-14T07:36:31.155Z,100.34
2023-05-14T07:37:40.276Z,101.31
2023-05-14T07:38:49.439Z,99.6
2023-05-14T07:39:57.650Z,102.78
2023-05-14T07:41:06.806Z,102.78
2023-05-14T07:42:15.975Z,104.49
2023-05-14T07:43:25.152Z,104
2023-05-14T07:44:33.345Z,105.71
2023-05-14T07:45:41.533Z,107.91
2023-05-14T07:46:50.714Z,106.2
2023-05-14T07:47:59.872Z,108.39
2023-05-14T07:49:09.064Z,108.88
2023-05-14T07:50:18.211Z,109.86
2023-05-14T07:51:27.384Z,111.32
2023-05-14T07:52:36.570Z,107.91
2023-05-14T07:53:45.740Z,106.68
2023-05-14T07:54:54.905Z,108.39
2023-05-14T07:56:03.117Z,105.71
2023-05-14T07:57:11.300Z,107.42
2023-05-14T07:58:20.471Z,108.88
2023-05-14T07:59:29.640Z,108.39
2023-05-14T08:00:38.803Z,107.91
2023-05-14T08:01:47.984Z,106.2
2023-05-14T08:02:57.217Z,105.46
2023-05-14T08:04:06.346Z,105.71
2023-05-14T08:05:15.513Z,104.73
2023-05-14T08:06:24.693Z,106.2
2023-05-14T08:07:32.874Z,104.98
2023-05-14T08:09:51.215Z,107.42
2023-05-14T08:12:08.615Z,108.39
2023-05-14T08:13:17.777Z,106.68
2023-05-14T08:15:36.088Z,107.91
2023-05-14T08:16:45.268Z,109.13
2023-05-14T08:17:54.439Z,105.71
2023-05-14T08:19:03.618Z,107.91
2023-05-14T08:20:12.816Z,108.39
2023-05-14T08:21:21.952Z,107.91
2023-05-14T08:22:30.146Z,108.15
2023-05-14T08:23:38.339Z,108.64
2023-05-14T08:24:47.519Z,104.73
2023-05-14T08:25:56.782Z,109.13
2023-05-14T08:27:05.860Z,107.17
2023-05-14T08:28:15.043Z,105.71
2023-05-14T08:30:33.374Z,109.61
2023-05-14T08:31:42.557Z,106.2
2023-05-14T08:32:51.752Z,106.68
2023-05-14T08:34:00.902Z,107.42
2023-05-14T08:36:19.251Z,101.8
2023-05-14T08:37:27.461Z,105.71
2023-05-14T08:38:35.629Z,103.02
2023-05-14T08:39:44.811Z,99.12
2023-05-14T08:40:53.976Z,99.12
2023-05-14T08:42:03.178Z,96.19
2023-05-14T08:44:21.493Z,94.97
2023-05-14T08:45:30.676Z,95.45
2023-05-14T08:46:39.894Z,93.01
2023-05-14T08:47:49.057Z,92.28
2023-05-14T08:48:58.180Z,93.75
2023-05-14T08:50:07.353Z,94.48
2023-05-14T08:51:16.516Z,97.41
2023-05-14T08:52:25.688Z,96.92
2023-05-14T08:53:33.903Z,99.6
2023-05-14T08:54:43.067Z,99.36
2023-05-14T08:55:52.233Z,100.34
2023-05-14T08:57:01.449Z,100.34
2023-05-14T08:58:10.570Z,99.36
2023-05-14T08:59:19.730Z,99.6
2023-05-14T09:00:28.941Z,102.53
2023-05-14T09:01:37.106Z,100.83
2023-05-14T09:03:54.468Z,103.75
2023-05-14T09:05:03.642Z,104.24
2023-05-14T09:06:12.812Z,101.56
2023-05-14T09:07:21.997Z,103.51
2023-05-14T09:08:31.219Z,103.02
2023-05-14T09:09:40.346Z,104
2023-05-14T09:10:49.496Z,100.09
2023-05-14T09:11:58.697Z,102.05
2023-05-14T09:13:07.868Z,100.83
2023-05-14T09:14:17.018Z,102.29
2023-05-14T09:15:26.189Z,101.31
2023-05-14T09:16:35.377Z,102.78
2023-05-14T09:17:43.556Z,103.75
2023-05-14T09:18:52.733Z,100.34
2023-05-14T09:20:01.915Z,104.24
2023-05-14T09:22:20.255Z,103.02
2023-05-14T09:23:28.441Z,105.95
2023-05-14T09:24:36.616Z,105.22
2023-05-14T09:25:45.802Z,104.24
2023-05-14T09:26:54.982Z,107.42
2023-05-14T09:28:04.138Z,105.46
2023-05-14T09:29:13.315Z,104.98
2023-05-14T09:30:22.491Z,105.22
2023-05-14T09:31:31.654Z,106.2
2023-05-14T09:32:40.844Z,108.15
2023-05-14T09:33:49.996Z,108.64
2023-05-14T09:34:58.204Z,109.61
2023-05-14T09:36:06.389Z,109.13
2023-05-14T09:37:15.581Z,110.59
2023-05-14T09:38:24.728Z,111.81
2023-05-14T09:39:33.892Z,109.37
2023-05-14T09:40:43.068Z,112.79
2023-05-14T09:41:52.247Z,107.91
2023-05-14T09:43:01.429Z,110.83
2023-05-14T09:44:10.602Z,110.59
2023-05-14T09:45:19.814Z,114.01
2023-05-14T09:46:28.073Z,111.08
2023-05-14T09:47:36.143Z,113.28
2023-05-14T09:48:45.422Z,115.23
2023-05-14T09:49:54.512Z,109.37
2023-05-14T09:51:03.686Z,112.54
2023-05-14T09:52:12.833Z,113.03
2023-05-14T09:53:22.012Z,109.13
2023-05-14T09:54:31.262Z,109.13
2023-05-14T09:55:40.360Z,106.68
2023-05-14T09:56:49.518Z,109.13
2023-05-14T09:57:58.729Z,107.91
2023-05-14T10:00:17.047Z,104
2023-05-14T10:01:26.221Z,106.44
2023-05-14T10:02:34.425Z,104.49
2023-05-14T10:03:43.643Z,105.71
2023-05-14T10:04:52.760Z,107.17
2023-05-14T10:06:01.936Z,105.71
2023-05-14T10:07:11.111Z,106.44
2023-05-14T10:08:20.274Z,105.71
2023-05-14T10:09:29.456Z,105.71
2023-05-14T10:10:37.640Z,102.05
2023-05-14T10:11:45.854Z,104
2023-05-14T10:12:54.019Z,105.71
2023-05-14T10:14:03.200Z,106.44
2023-05-14T10:15:12.412Z,106.44
2023-05-14T10:16:21.564Z,105.46
2023-05-14T10:17:30.760Z,104.24
2023-05-14T10:18:39.925Z,108.88
2023-05-14T10:19:49.075Z,107.91
2023-05-14T10:20:58.233Z,106.93
2023-05-14T10:23:16.569Z,104.98
2023-05-14T10:24:25.792Z,107.17
2023-05-14T10:25:34.914Z,106.93
2023-05-14T10:26:44.101Z,106.68
2023-05-14T10:27:52.266Z,108.15
2023-05-14T10:29:01.458Z,109.86
2023-05-14T10:30:10.633Z,107.66
2023-05-14T10:31:19.799Z,107.91
2023-05-14T10:32:28.961Z,107.42
2023-05-14T10:33:38.158Z,105.46
2023-05-14T10:34:47.314Z,107.91
2023-05-14T10:35:55.505Z,109.13
2023-05-14T10:37:03.696Z,108.39
2023-05-14T10:38:12.870Z,108.64
2023-05-14T10:39:22.052Z,106.44
2023-05-14T10:41:40.391Z,105.22
2023-05-14T10:42:49.568Z,106.44
2023-05-14T10:43:58.732Z,107.17
2023-05-14T10:45:08.004Z,109.86
2023-05-14T10:47:26.299Z,104.73
2023-05-14T10:48:35.435Z,107.91
2023-05-14T10:49:43.623Z,104.73
2023-05-14T10:50:51.802Z,104.49
2023-05-14T10:52:00.978Z,105.71
2023-05-14T10:53:10.151Z,109.13
2023-05-14T10:54:19.317Z,105.95
2023-05-14T10:55:28.501Z,106.93
2023-05-14T10:56:37.760Z,107.91
2023-05-14T10:57:46.922Z,104.24
2023-05-14T10:58:56.010Z,106.93
2023-05-14T11:00:05.207Z,107.66
2023-05-14T11:01:13.490Z,106.93
2023-05-14T11:02:21.579Z,105.46
2023-05-14T11:03:30.747Z,104
2023-05-14T11:04:39.915Z,110.1
2023-05-14T11:05:49.078Z,108.15
2023-05-14T11:08:07.436Z,107.66
2023-05-14T11:09:16.602Z,107.42
2023-05-14T11:11:34.952Z,110.59
2023-05-14T11:12:44.143Z,109.37
2023-05-14T11:13:53.293Z,110.59
2023-05-14T11:15:01.494Z,112.3
2023-05-14T11:16:09.683Z,114.74
2023-05-14T11:17:18.852Z,114.01
2023-05-14T11:18:28.019Z,113.52
2023-05-14T11:19:37.191Z,111.81
2023-05-14T11:20:46.364Z,111.32
2023-05-14T11:21:55.542Z,114.5
2023-05-14T11:23:04.762Z,112.79
2023-05-14T11:24:13.880Z,114.5
2023-05-14T11:25:23.064Z,117.43
2023-05-14T11:26:31.325Z,114.5
2023-05-14T11:28:48.633Z,113.03
2023-05-14T11:29:57.790Z,114.25
2023-05-14T11:31:06.008Z,111.81
2023-05-14T11:32:15.163Z,109.86
2023-05-14T11:33:24.339Z,111.32
2023-05-14T11:34:33.493Z,108.88
2023-05-14T11:35:42.699Z,111.32
2023-05-14T11:36:51.848Z,107.17
2023-05-14T11:38:01.033Z,110.1
2023-05-14T11:39:10.194Z,106.93
2023-05-14T11:40:19.357Z,109.86
2023-05-14T11:41:28.535Z,108.15
2023-05-14T11:42:37.712Z,105.22
2023-05-14T11:43:46.877Z,106.93
2023-05-14T11:44:56.053Z,105.95
2023-05-14T11:46:04.246Z,104.49
2023-05-14T11:47:13.415Z,101.8
2023-05-14T11:48:22.586Z,103.02
2023-05-14T11:49:31.776Z,99.85
2023-05-14T11:50:39.957Z,98.87
2023-05-14T11:51:48.149Z,100.09
2023-05-14T11:52:57.390Z,100.34
2023-05-14T11:54:06.549Z,103.02
2023-05-14T11:55:15.660Z,102.05
2023-05-14T11:56:24.828Z,103.02
2023-05-14T11:57:34.002Z,101.8
2023-05-14T11:58:43.195Z,100.09
2023-05-14T11:59:52.367Z,101.8
2023-05-14T12:01:01.527Z,100.58
2023-05-14T12:02:10.701Z,101.31
2023-05-14T12:03:19.866Z,104
2023-05-14T12:04:29.080Z,102.29
2023-05-14T12:05:38.211Z,101.31
2023-05-14T12:06:46.391Z,100.83
2023-05-14T12:07:55.672Z,103.27
2023-05-14T12:09:04.757Z,99.6
2023-05-14T12:10:13.931Z,102.29
2023-05-14T12:11:23.085Z,101.31
2023-05-14T12:12:32.298Z,102.29
2023-05-14T12:13:40.483Z,101.56
2023-05-14T12:14:48.654Z,103.75
2023-05-14T12:15:56.843Z,103.51
2023-05-14T12:17:06.004Z,104.24
2023-05-14T12:18:15.171Z,103.75
2023-05-14T12:19:24.350Z,97.41
2023-05-14T12:20:33.523Z,99.85
2023-05-14T12:21:42.738Z,101.8
2023-05-14T12:22:51.886Z,101.07
2023-05-14T12:24:01.108Z,100.83
2023-05-14T12:25:10.264Z,103.27
2023-05-14T12:26:19.387Z,102.53
2023-05-14T12:27:28.623Z,100.09
2023-05-14T12:28:37.750Z,100.58
2023-05-14T12:29:46.921Z,102.78
2023-05-14T12:30:55.112Z,103.51
2023-05-14T12:32:04.273Z,104.73
2023-05-14T12:33:13.469Z,103.02
2023-05-14T12:34:22.615Z,106.44
2023-05-14T12:35:31.844Z,104.49
2023-05-14T12:36:40.962Z,102.29
2023-05-14T12:37:50.204Z,103.27
2023-05-14T12:38:58.339Z,102.29
2023-05-14T12:40:06.534Z,102.53
2023-05-14T12:41:15.692Z,104.49
2023-05-14T12:42:24.911Z,102.78
2023-05-14T12:43:34.044Z,104
2023-05-14T12:44:43.223Z,102.29
2023-05-14T12:45:52.409Z,102.78
2023-05-14T12:47:01.568Z,100.83
2023-05-14T12:48:10.792Z,100.09
2023-05-14T12:49:20.011Z,102.78
2023-05-14T12:50:29.094Z,101.07
2023-05-14T12:51:38.275Z,102.53
2023-05-14T12:52:47.438Z,102.78
2023-05-14T12:53:56.626Z,102.53
2023-05-14T12:55:04.805Z,104.73
2023-05-14T12:56:14.089Z,103.02
2023-05-14T12:57:23.144Z,102.05
2023-05-14T12:58:32.312Z,102.29
2023-05-14T12:59:41.544Z,102.78
2023-05-14T13:00:50.674Z,101.31
2023-05-14T13:01:59.833Z,103.27
2023-05-14T13:03:09.081Z,102.78
2023-05-14T13:04:18.181Z,104
2023-05-14T13:05:27.340Z,101.8
2023-05-14T13:06:36.535Z,103.27
2023-05-14T13:07:45.723Z,101.31
2023-05-14T13:08:54.924Z,100.34
2023-05-14T13:10:03.100Z,103.75
2023-05-14T13:11:12.298Z,100.83
2023-05-14T13:12:21.416Z,102.05
2023-05-14T13:13:30.619Z,103.51
2023-05-14T13:14:39.861Z,105.22
2023-05-14T13:15:48.952Z,101.8
2023-05-14T13:16:58.102Z,102.29
2023-05-14T13:18:07.275Z,103.75
2023-05-14T13:19:16.437Z,102.78
2023-05-14T13:20:25.623Z,102.78
2023-05-14T13:21:34.798Z,103.27
2023-05-14T13:22:43.967Z,102.29
2023-05-14T13:23:53.129Z,103.02
2023-05-14T13:25:01.325Z,101.8
2023-05-14T13:27:18.701Z,102.53
2023-05-14T13:28:26.923Z,102.53
2023-05-14T13:29:35.079Z,105.46
2023-05-14T13:30:43.283Z,103.51
2023-05-14T13:33:01.612Z,103.51
2023-05-14T13:34:10.780Z,101.07
2023-05-14T13:35:19.953Z,102.53
2023-05-14T13:36:29.123Z,101.07
2023-05-14T13:37:38.324Z,103.27
2023-05-14T13:39:56.650Z,101.31
2023-05-14T13:41:05.833Z,103.27
2023-05-14T13:43:24.173Z,102.78
2023-05-14T13:44:32.368Z,102.53
2023-05-14T13:45:40.545Z,102.53
2023-05-14T13:46:49.716Z,103.51
2023-05-14T13:47:59.106Z,104.49
2023-05-14T13:49:08.290Z,102.78
2023-05-14T13:50:17.232Z,104
2023-05-14T13:51:26.608Z,103.02
2023-05-14T13:52:35.652Z,104.73
2023-05-14T13:53:44.930Z,102.53
2023-05-14T13:54:53.917Z,101.56
2023-05-14T13:56:02.347Z,105.71
2023-05-14T13:57:10.308Z,103.27
2023-05-14T13:58:19.573Z,105.95
2023-05-14T13:59:28.830Z,102.53
2023-05-14T14:00:38.042Z,105.71
2023-05-14T14:01:47.166Z,106.68
2023-05-14T14:02:56.299Z,107.17
2023-05-14T14:04:05.416Z,104.98
2023-05-14T14:05:14.600Z,105.71
2023-05-14T14:06:23.699Z,105.71
2023-05-14T14:07:32.867Z,106.2
2023-05-14T14:08:42.112Z,106.68
2023-05-14T14:09:51.299Z,106.44
2023-05-14T14:11:00.397Z,105.71
2023-05-14T14:12:08.578Z,105.95
2023-05-14T14:13:17.761Z,105.71
2023-05-14T14:14:26.938Z,109.86
2023-05-14T14:15:36.112Z,107.17
2023-05-14T14:16:45.363Z,109.13
2023-05-14T14:17:54.652Z,106.44
2023-05-14T14:19:03.837Z,107.91
2023-05-14T14:20:12.787Z,106.44
2023-05-14T14:21:22.151Z,117.43
2023-05-14T14:22:31.318Z,107.17
2023-05-14T14:23:40.454Z,109.37
2023-05-14T14:24:49.492Z,106.93
2023-05-14T14:25:58.666Z,104.73
2023-05-14T14:27:06.935Z,104.73
2023-05-14T14:28:16.177Z,107.66
2023-05-14T14:29:25.332Z,106.44
2023-05-14T14:30:34.422Z,104.73
2023-05-14T14:31:43.678Z,103.75
2023-05-14T14:32:52.722Z,108.15
2023-05-14T14:34:02.056Z,104.49
2023-05-14T14:35:11.058Z,105.46
2023-05-14T14:36:20.268Z,105.95
2023-05-14T14:37:29.424Z,106.44
2023-05-14T14:38:38.571Z,104.73
2023-05-14T14:39:47.752Z,107.42
2023-05-14T14:40:55.940Z,106.2
2023-05-14T14:42:04.147Z,105.22
2023-05-14T14:43:12.326Z,105.71
2023-05-14T14:44:21.489Z,106.68
2023-05-14T14:45:30.686Z,108.15
2023-05-14T14:46:39.858Z,107.42
2023-05-14T14:47:49.020Z,105.71
2023-05-14T14:48:58.189Z,105.22
2023-05-14T14:50:07.388Z,104.98
2023-05-14T14:51:16.568Z,105.46
2023-05-14T14:52:25.738Z,105.95
2023-05-14T14:53:34.953Z,105.71
2023-05-14T14:54:44.069Z,105.46
2023-05-14T14:55:53.245Z,107.17
2023-05-14T14:57:02.401Z,105.71
2023-05-14T14:58:10.588Z,104.73
2023-05-14T14:59:19.778Z,105.46
2023-05-14T15:00:28.981Z,105.71
2023-05-14T15:01:38.137Z,104
2023-05-14T15:02:47.295Z,104.49
2023-05-14T15:03:56.481Z,103.75
2023-05-14T15:05:05.664Z,105.22
2023-05-14T15:06:13.869Z,104.24
2023-05-14T15:07:23.071Z,103.27
2023-05-14T15:08:31.224Z,102.78
2023-05-14T15:10:49.529Z,103.51
2023-05-14T15:11:58.728Z,101.8
2023-05-14T15:13:07.906Z,102.53
2023-05-14T15:14:17.052Z,102.05
2023-05-14T15:16:35.476Z,104.73
2023-05-14T15:17:44.562Z,103.02
2023-05-14T15:18:53.755Z,103.02
2023-05-14T15:20:01.933Z,103.51
2023-05-14T15:21:10.126Z,105.71
2023-05-14T15:22:18.317Z,104
2023-05-14T15:23:27.512Z,102.78
2023-05-14T15:24:36.677Z,102.78
2023-05-14T15:25:45.831Z,102.78
2023-05-14T15:26:55.008Z,101.56
2023-05-14T15:28:04.202Z,102.78
2023-05-14T15:29:13.370Z,102.05
2023-05-14T15:30:22.534Z,104.49